createdAt,value
2018-03-21T00:01:11.965Z,4.73
2018-03-21T00:03:39.717Z,4.74
2018-03-21T00:06:07.269Z,4.71
2018-03-21T00:08:34.819Z,4.71
2018-03-21T00:11:02.578Z,4.72
2018-03-21T00:13:30.122Z,4.77
2018-03-21T00:15:57.690Z,4.78
2018-03-21T00:18:25.415Z,4.77
2018-03-21T00:20:52.967Z,4.76
2018-03-21T00:23:20.511Z,4.77
2018-03-21T00:25:48.106Z,4.79
2018-03-21T00:28:15.654Z,4.61
2018-03-21T00:30:43.199Z,4.59
2018-03-21T00:33:10.895Z,4.59
2018-03-21T00:35:38.447Z,4.59
2018-03-21T00:38:06.005Z,4.63
2018-03-21T00:40:33.581Z,4.65
2018-03-21T00:43:01.134Z,4.70
2018-03-21T00:45:28.698Z,4.73
2018-03-21T00:47:56.279Z,4.74
2018-03-21T00:50:23.827Z,4.80
2018-03-21T00:52:51.380Z,4.80
2018-03-21T00:55:19.251Z,4.80
2018-03-21T00:57:46.814Z,4.75
2018-03-21T01:00:14.386Z,4.77
2018-03-21T01:02:41.992Z,4.74
2018-03-21T01:05:09.553Z,4.70
2018-03-21T01:07:37.110Z,4.65
2018-03-21T01:10:04.804Z,4.68
2018-03-21T01:12:32.351Z,4.68
2018-03-21T01:14:59.899Z,4.64
2018-03-21T01:17:27.481Z,4.55
2018-03-21T01:19:55.032Z,4.62
2018-03-21T01:22:22.598Z,4.63
2018-03-21T01:24:50.322Z,4.64
2018-03-21T01:27:17.878Z,4.66
2018-03-21T01:29:45.438Z,4.72
2018-03-21T01:32:13.036Z,4.74
2018-03-21T01:34:40.588Z,4.77
2018-03-21T01:37:08.166Z,4.79
2018-03-21T01:39:35.880Z,4.85
2018-03-21T01:42:03.450Z,4.82
2018-03-21T01:44:31.007Z,4.82
2018-03-21T01:46:58.662Z,4.75
2018-03-21T01:49:26.235Z,4.69
2018-03-21T01:51:53.785Z,4.74
2018-03-21T01:54:21.522Z,4.71
2018-03-21T01:56:49.078Z,4.74
2018-03-21T01:59:16.643Z,4.74
2018-03-21T02:01:44.205Z,4.73
2018-03-21T02:04:11.767Z,4.70
2018-03-21T02:06:39.495Z,4.72
2018-03-21T02:09:07.058Z,4.74
2018-03-21T02:11:34.634Z,4.73
2018-03-21T02:14:02.220Z,4.80
2018-03-21T02:16:29.767Z,4.77
2018-03-21T02:18:57.309Z,4.70
2018-03-21T02:21:25.047Z,4.73
2018-03-21T02:23:52.598Z,4.72
2018-03-21T02:26:20.141Z,4.71
2018-03-21T02:28:47.874Z,4.75
2018-03-21T02:31:15.422Z,4.76
2018-03-21T02:33:42.975Z,4.77
2018-03-21T02:36:10.666Z,4.74
2018-03-21T02:38:38.208Z,4.67
2018-03-21T02:41:05.770Z,4.69
2018-03-21T02:43:33.377Z,4.70
2018-03-21T02:46:00.939Z,4.68
2018-03-21T02:48:28.487Z,4.66
2018-03-21T02:50:56.070Z,4.61
2018-03-21T02:53:23.624Z,4.62
2018-03-21T02:55:51.163Z,4.65
2018-03-21T02:58:18.766Z,4.59
2018-03-21T03:00:46.345Z,4.54
2018-03-21T03:03:13.903Z,4.49
2018-03-21T03:05:41.633Z,4.49
2018-03-21T03:08:09.199Z,4.47
2018-03-21T03:10:36.755Z,4.43
2018-03-21T03:13:04.478Z,4.48
2018-03-21T03:15:32.030Z,4.46
2018-03-21T03:17:59.573Z,4.50
2018-03-21T03:20:27.178Z,4.54
2018-03-21T03:22:54.721Z,4.49
2018-03-21T03:25:22.266Z,4.51
2018-03-21T03:27:49.845Z,4.43
2018-03-21T03:30:17.402Z,4.45
2018-03-21T03:32:44.958Z,4.42
2018-03-21T03:35:12.830Z,4.36
2018-03-21T03:37:40.379Z,4.36
2018-03-21T03:40:07.935Z,4.37
2018-03-21T03:42:35.654Z,4.38
2018-03-21T03:45:03.222Z,4.40
2018-03-21T03:47:30.765Z,4.39
2018-03-21T03:49:58.343Z,4.40
2018-03-21T03:52:25.907Z,4.39
2018-03-21T03:54:53.452Z,4.40
2018-03-21T03:57:21.187Z,4.38
2018-03-21T03:59:48.751Z,4.43
2018-03-21T04:02:16.342Z,4.46
2018-03-21T04:04:43.934Z,4.45
2018-03-21T04:07:11.478Z,4.42
2018-03-21T04:09:39.047Z,4.44
2018-03-21T04:12:06.770Z,4.47
2018-03-21T04:14:34.348Z,4.51
2018-03-21T04:17:01.892Z,4.54
2018-03-21T04:19:29.575Z,4.51
2018-03-21T04:21:57.132Z,4.41
2018-03-21T04:24:24.700Z,4.37
2018-03-21T04:26:52.290Z,4.39
2018-03-21T04:29:19.850Z,4.42
2018-03-21T04:31:47.414Z,4.45
2018-03-21T04:34:15.163Z,4.42
2018-03-21T04:36:42.712Z,4.42
2018-03-21T04:39:10.262Z,4.39
2018-03-21T04:41:38.022Z,4.42
2018-03-21T04:44:05.569Z,4.43
2018-03-21T04:46:33.143Z,4.43
2018-03-21T04:49:00.894Z,4.46
2018-03-21T04:51:28.472Z,4.49
2018-03-21T04:53:56.033Z,4.49
2018-03-21T04:56:23.621Z,4.54
2018-03-21T04:58:51.199Z,4.59
2018-03-21T05:01:18.757Z,4.63
2018-03-21T05:03:46.354Z,4.68
2018-03-21T05:06:13.924Z,4.75
2018-03-21T05:08:41.469Z,4.89
2018-03-21T05:11:09.176Z,4.89
2018-03-21T05:13:36.721Z,4.93
2018-03-21T05:16:04.274Z,4.96
2018-03-21T05:18:32.006Z,5.04
2018-03-21T05:20:59.553Z,5.06
2018-03-21T05:23:28.006Z,5.07
2018-03-21T05:25:55.595Z,5.10
2018-03-21T05:28:23.146Z,5.17
2018-03-21T05:30:50.954Z,5.16
2018-03-21T05:33:18.647Z,5.14
2018-03-21T05:35:46.198Z,5.16
2018-03-21T05:38:13.760Z,5.24
2018-03-21T05:40:41.332Z,5.23
2018-03-21T05:43:08.885Z,5.24
2018-03-21T05:45:36.440Z,5.25
2018-03-21T05:48:04.197Z,5.33
2018-03-21T05:50:31.755Z,5.36
2018-03-21T05:52:59.297Z,5.39
2018-03-21T05:55:27.031Z,5.44
2018-03-21T05:57:54.587Z,5.44
2018-03-21T06:00:22.129Z,5.49
2018-03-21T06:02:49.718Z,5.54
2018-03-21T06:05:17.306Z,5.61
2018-03-21T06:07:44.860Z,5.65
2018-03-21T06:10:12.735Z,5.72
2018-03-21T06:12:40.291Z,5.76
2018-03-21T06:15:07.868Z,5.79
2018-03-21T06:17:35.466Z,5.82
2018-03-21T06:20:03.049Z,5.86
2018-03-21T06:22:30.644Z,5.91
2018-03-21T06:24:58.254Z,5.94
2018-03-21T06:27:25.803Z,5.92
2018-03-21T06:29:53.365Z,6.06
2018-03-21T06:32:20.943Z,6.14
2018-03-21T06:34:48.493Z,6.18
2018-03-21T06:37:16.043Z,6.19
2018-03-21T06:39:43.617Z,6.23
2018-03-21T06:42:11.170Z,6.22
2018-03-21T06:44:38.742Z,6.29
2018-03-21T06:47:06.444Z,6.35
2018-03-21T06:49:33.995Z,6.39
2018-03-21T06:52:01.548Z,6.49
2018-03-21T06:54:29.226Z,6.52
2018-03-21T06:56:56.788Z,6.61
2018-03-21T06:59:24.342Z,6.53
2018-03-21T07:01:51.889Z,6.48
2018-03-21T07:04:19.438Z,6.45
2018-03-21T07:06:47.169Z,6.57
2018-03-21T07:09:14.739Z,6.47
2018-03-21T07:11:42.323Z,6.53
2018-03-21T07:14:21.593Z,6.58
2018-03-21T07:16:49.187Z,6.58
2018-03-21T07:19:16.747Z,6.60
2018-03-21T07:21:44.371Z,6.68
2018-03-21T07:24:11.929Z,6.79
2018-03-21T07:26:39.502Z,6.78
2018-03-21T07:29:07.233Z,6.87
2018-03-21T07:31:34.807Z,6.94
2018-03-21T07:34:02.367Z,7.04
2018-03-21T07:36:30.045Z,7.10
2018-03-21T07:38:57.594Z,7.09
2018-03-21T07:41:25.140Z,7.20
2018-03-21T07:43:52.756Z,7.25
2018-03-21T07:46:20.311Z,7.20
2018-03-21T07:48:47.890Z,7.21
2018-03-21T07:51:15.782Z,6.97
2018-03-21T07:53:43.368Z,6.67
2018-03-21T07:56:10.920Z,6.67
2018-03-21T07:58:38.509Z,6.87
2018-03-21T08:01:06.068Z,7.10
2018-03-21T08:03:33.637Z,7.23
2018-03-21T08:06:01.237Z,7.35
2018-03-21T08:08:28.792Z,7.28
2018-03-21T08:10:56.339Z,7.59
2018-03-21T08:13:24.039Z,7.90
2018-03-21T08:15:56.948Z,8.29
2018-03-21T08:18:24.498Z,8.67
2018-03-21T08:20:52.230Z,9.01
2018-03-21T08:23:19.785Z,9.35
2018-03-21T08:25:47.341Z,9.59
2018-03-21T08:28:15.074Z,9.73
2018-03-21T08:30:42.640Z,9.76
2018-03-21T08:33:10.194Z,9.73
2018-03-21T08:35:38.645Z,9.66
2018-03-21T08:38:06.204Z,9.66
2018-03-21T08:40:33.767Z,9.68
2018-03-21T08:43:01.365Z,9.78
2018-03-21T08:45:28.918Z,9.76
2018-03-21T08:47:56.459Z,9.83
2018-03-21T08:50:24.037Z,9.74
2018-03-21T08:52:51.627Z,9.73
2018-03-21T08:55:19.179Z,9.76
2018-03-21T08:57:46.765Z,9.74
2018-03-21T09:00:14.319Z,9.73
2018-03-21T09:02:41.882Z,9.75
2018-03-21T09:05:09.561Z,9.78
2018-03-21T09:07:37.117Z,9.76
2018-03-21T09:10:04.720Z,9.70
2018-03-21T09:12:32.296Z,9.66
2018-03-21T09:14:59.845Z,9.67
2018-03-21T09:17:27.388Z,9.85
2018-03-21T09:19:54.979Z,9.96
2018-03-21T09:22:22.562Z,10.14
2018-03-21T09:24:50.130Z,10.27
2018-03-21T09:27:17.858Z,10.29
2018-03-21T09:29:45.418Z,10.28
2018-03-21T09:32:12.971Z,10.29
2018-03-21T09:34:40.554Z,10.02
2018-03-21T09:37:08.103Z,9.62
2018-03-21T09:39:35.668Z,9.53
2018-03-21T09:42:03.267Z,9.23
2018-03-21T09:44:30.830Z,8.81
2018-03-21T09:46:58.411Z,8.79
2018-03-21T09:49:26.000Z,8.91
2018-03-21T09:51:53.559Z,9.00
2018-03-21T09:54:21.101Z,9.07
2018-03-21T09:56:48.835Z,9.17
2018-03-21T09:59:16.393Z,9.36
2018-03-21T10:01:43.942Z,9.34
2018-03-21T10:04:11.754Z,9.43
2018-03-21T10:06:39.306Z,9.88
2018-03-21T10:09:06.911Z,10.27
2018-03-21T10:11:34.610Z,10.41
2018-03-21T10:14:02.164Z,10.44
2018-03-21T10:16:29.722Z,10.67
2018-03-21T10:18:57.307Z,10.30
2018-03-21T10:21:24.875Z,10.20
2018-03-21T10:23:52.438Z,10.37
2018-03-21T10:26:20.046Z,10.30
2018-03-21T10:28:47.613Z,10.48
2018-03-21T10:31:16.568Z,10.57
2018-03-21T10:33:44.294Z,10.84
2018-03-21T10:36:11.875Z,10.86
2018-03-21T10:38:39.451Z,10.62
2018-03-21T10:41:07.362Z,10.52
2018-03-21T10:43:34.951Z,10.74
2018-03-21T10:46:02.532Z,10.80
2018-03-21T10:48:30.124Z,10.76
2018-03-21T10:50:57.713Z,10.80
2018-03-21T10:53:25.314Z,10.93
2018-03-21T10:55:52.919Z,10.93
2018-03-21T10:58:20.476Z,10.97
2018-03-21T11:00:48.038Z,11.13
2018-03-21T11:03:15.930Z,11.24
2018-03-21T11:05:43.492Z,11.47
2018-03-21T11:08:11.075Z,11.64
2018-03-21T11:10:39.371Z,11.91
2018-03-21T11:13:06.926Z,12.24
2018-03-21T11:15:34.512Z,12.54
2018-03-21T11:18:02.205Z,12.90
2018-03-21T11:20:29.764Z,13.33
2018-03-21T11:22:57.323Z,13.67
2018-03-21T11:25:24.923Z,13.90
2018-03-21T11:27:52.482Z,13.90
2018-03-21T11:30:20.037Z,14.11
2018-03-21T11:32:47.831Z,14.32
2018-03-21T11:35:15.406Z,14.41
2018-03-21T11:37:42.976Z,14.58
2018-03-21T11:40:10.916Z,14.68
2018-03-21T11:42:38.468Z,14.78
2018-03-21T11:45:06.021Z,14.42
2018-03-21T11:47:34.273Z,14.36
2018-03-21T11:50:01.818Z,14.48
2018-03-21T11:52:29.369Z,14.30
2018-03-21T11:54:57.099Z,14.19
2018-03-21T11:57:24.656Z,13.62
2018-03-21T11:59:52.231Z,13.80
2018-03-21T12:02:19.805Z,13.87
2018-03-21T12:04:47.362Z,13.58
2018-03-21T12:07:14.942Z,13.12
2018-03-21T12:09:42.491Z,13.39
2018-03-21T12:12:10.040Z,13.19
2018-03-21T12:14:37.962Z,12.85
2018-03-21T12:17:05.539Z,12.80
2018-03-21T12:19:33.111Z,12.66
2018-03-21T12:22:00.702Z,12.10
2018-03-21T12:24:28.268Z,12.10
2018-03-21T12:26:55.831Z,12.05
2018-03-21T12:29:23.421Z,11.90
2018-03-21T12:31:50.983Z,12.17
2018-03-21T12:34:18.533Z,12.21
2018-03-21T12:36:46.132Z,11.85
2018-03-21T12:39:16.645Z,11.57
2018-03-21T12:41:44.231Z,11.59
2018-03-21T12:44:11.994Z,11.37
2018-03-21T12:46:39.550Z,11.16
2018-03-21T12:49:07.099Z,11.38
2018-03-21T12:51:34.699Z,11.66
2018-03-21T12:54:02.265Z,11.76
2018-03-21T12:56:29.828Z,11.51
2018-03-21T12:58:57.437Z,11.25
2018-03-21T13:01:25.012Z,10.75
2018-03-21T13:03:52.579Z,10.22
2018-03-21T13:06:20.203Z,9.78
2018-03-21T13:08:47.754Z,9.42
2018-03-21T13:11:15.313Z,9.57
2018-03-21T13:13:42.915Z,9.35
2018-03-21T13:16:10.555Z,8.90
2018-03-21T13:18:38.250Z,8.74
2018-03-21T13:21:05.788Z,8.48
2018-03-21T13:23:33.344Z,8.07
2018-03-21T13:26:00.949Z,8.12
2018-03-21T13:28:28.519Z,8.15
2018-03-21T13:30:56.787Z,8.01
2018-03-21T13:33:24.333Z,7.88
2018-03-21T13:35:51.886Z,7.67
2018-03-21T13:38:19.566Z,7.48
2018-03-21T13:40:47.122Z,7.53
2018-03-21T13:43:14.685Z,7.36
2018-03-21T13:45:42.426Z,7.18
2018-03-21T13:48:09.998Z,6.93
2018-03-21T13:50:37.598Z,6.74
2018-03-21T13:53:05.331Z,6.73
2018-03-21T13:55:32.873Z,6.68
2018-03-21T13:58:00.422Z,6.79
2018-03-21T14:00:28.008Z,6.68
2018-03-21T14:02:55.565Z,6.61
2018-03-21T14:05:23.172Z,6.36
2018-03-21T14:07:50.861Z,6.36
2018-03-21T14:10:18.424Z,6.30
2018-03-21T14:12:45.980Z,6.32
2018-03-21T14:15:13.564Z,6.18
2018-03-21T14:17:41.112Z,6.07
2018-03-21T14:20:09.321Z,6.11
2018-03-21T14:22:37.076Z,6.08
2018-03-21T14:25:04.686Z,6.10
2018-03-21T14:27:32.239Z,5.98
2018-03-21T14:29:59.877Z,5.87
2018-03-21T14:32:27.426Z,5.84
2018-03-21T14:34:54.998Z,5.83
2018-03-21T14:37:22.577Z,5.88
2018-03-21T14:39:50.135Z,5.80
2018-03-21T14:42:17.691Z,5.81
2018-03-21T14:44:45.291Z,5.78
2018-03-21T14:47:12.846Z,5.57
2018-03-21T14:49:40.421Z,5.36
2018-03-21T14:52:08.128Z,5.18
2018-03-21T14:54:35.679Z,5.13
2018-03-21T14:57:03.261Z,5.10
2018-03-21T14:59:30.987Z,4.95
2018-03-21T15:01:58.595Z,4.95
2018-03-21T15:04:26.150Z,5.04
2018-03-21T15:06:54.097Z,4.99
2018-03-21T15:09:21.658Z,4.96
2018-03-21T15:11:49.222Z,4.92
2018-03-21T15:14:16.806Z,4.96
2018-03-21T15:16:44.350Z,4.84
2018-03-21T15:22:04.114Z,4.79
2018-03-21T15:24:31.663Z,4.64
2018-03-21T15:26:59.219Z,4.48
2018-03-21T15:29:26.853Z,4.44
2018-03-21T15:31:54.394Z,4.42
2018-03-21T15:34:21.939Z,4.36
2018-03-21T15:36:49.647Z,4.29
2018-03-21T15:39:17.206Z,4.14
2018-03-21T15:41:44.755Z,4.06
2018-03-21T15:44:12.515Z,3.94
2018-03-21T15:46:40.061Z,3.82
2018-03-21T15:49:07.609Z,3.74
2018-03-21T15:51:35.201Z,3.64
2018-03-21T15:54:02.754Z,3.52
2018-03-21T15:56:30.323Z,3.43
2018-03-21T15:58:58.067Z,3.38
2018-03-21T16:01:25.626Z,3.40
2018-03-21T16:03:53.191Z,3.30
2018-03-21T16:06:20.786Z,3.21
2018-03-21T16:08:48.365Z,3.13
2018-03-21T16:11:15.923Z,3.01
2018-03-21T16:13:43.524Z,2.98
2018-03-21T16:16:11.098Z,2.92
2018-03-21T16:18:38.662Z,2.94
2018-03-21T16:21:06.592Z,2.76
2018-03-21T16:23:34.178Z,2.75
2018-03-21T16:26:01.730Z,2.66
2018-03-21T16:28:29.324Z,2.62
2018-03-21T16:30:57.023Z,2.61
2018-03-21T16:33:24.717Z,2.48
2018-03-21T16:35:52.267Z,2.48
2018-03-21T16:38:19.837Z,2.43
2018-03-21T16:40:47.739Z,2.38
2018-03-21T16:43:15.333Z,2.38
2018-03-21T16:45:42.887Z,2.38
2018-03-21T16:48:10.490Z,2.32
2018-03-21T16:50:38.076Z,2.29
2018-03-21T16:53:05.629Z,2.28
2018-03-21T16:55:33.202Z,2.21
2018-03-21T16:58:00.751Z,2.21
2018-03-21T17:00:28.320Z,2.14
2018-03-21T17:02:56.014Z,2.13
2018-03-21T17:05:23.575Z,2.08
2018-03-21T17:07:51.127Z,2.08
2018-03-21T17:10:24.628Z,2.06
2018-03-21T17:12:52.196Z,2.00
2018-03-21T17:15:19.748Z,2.01
2018-03-21T17:17:47.610Z,1.92
2018-03-21T17:20:15.824Z,1.93
2018-03-21T17:22:43.369Z,1.93
2018-03-21T17:25:11.017Z,1.98
2018-03-21T17:27:38.563Z,2.01
2018-03-21T17:30:06.161Z,1.93
2018-03-21T17:32:33.898Z,1.81
2018-03-21T17:35:01.448Z,1.75
2018-03-21T17:37:29.046Z,1.78
2018-03-21T17:39:56.643Z,1.70
2018-03-21T17:42:24.197Z,1.67
2018-03-21T17:44:51.748Z,1.63
2018-03-21T17:47:19.333Z,1.59
2018-03-21T17:49:46.894Z,1.52
2018-03-21T17:52:14.472Z,1.43
2018-03-21T17:54:43.023Z,1.41
2018-03-21T17:57:10.606Z,1.43
2018-03-21T17:59:38.163Z,1.49
2018-03-21T18:02:05.751Z,1.40
2018-03-21T18:04:33.302Z,1.35
2018-03-21T18:07:00.865Z,1.22
2018-03-21T18:09:28.779Z,1.16
2018-03-21T18:11:56.355Z,1.16
2018-03-21T18:14:23.928Z,1.08
2018-03-21T18:16:51.815Z,1.03
2018-03-21T18:19:19.385Z,1.07
2018-03-21T18:21:46.934Z,1.09
2018-03-21T18:24:14.671Z,1.07
2018-03-21T18:26:42.234Z,1.11
2018-03-21T18:29:09.802Z,1.13
2018-03-21T18:31:43.867Z,1.03
2018-03-21T18:34:11.438Z,1.03
2018-03-21T18:36:39.895Z,1.02
2018-03-21T18:39:07.624Z,1.06
2018-03-21T18:41:35.212Z,1.04
2018-03-21T18:44:02.782Z,1.05
2018-03-21T18:46:30.483Z,1.03
2018-03-21T18:48:58.066Z,1.02
2018-03-21T18:51:25.632Z,0.98
2018-03-21T18:53:53.418Z,0.92
2018-03-21T18:56:20.994Z,0.88
2018-03-21T18:58:48.569Z,0.81
2018-03-21T19:01:16.146Z,0.74
2018-03-21T19:03:43.734Z,0.77
2018-03-21T19:06:11.286Z,0.68
2018-03-21T19:08:38.896Z,0.75
2018-03-21T19:11:06.471Z,0.74
2018-03-21T19:13:34.036Z,0.70
2018-03-21T19:16:01.652Z,0.71
2018-03-21T19:18:29.207Z,0.75
2018-03-21T19:20:56.788Z,0.85
2018-03-21T19:23:24.503Z,0.74
2018-03-21T19:25:52.096Z,0.71
2018-03-21T19:28:19.659Z,0.71
2018-03-21T19:30:47.230Z,0.75
2018-03-21T19:33:14.785Z,0.69
2018-03-21T19:35:42.355Z,0.69
2018-03-21T19:38:09.972Z,0.66
2018-03-21T19:40:37.525Z,0.63
2018-03-21T19:43:05.086Z,0.63
2018-03-21T19:45:32.809Z,0.60
2018-03-21T19:48:00.421Z,0.60
2018-03-21T19:50:27.996Z,0.61
2018-03-21T19:52:55.603Z,0.62
2018-03-21T19:55:23.171Z,0.58
2018-03-21T19:57:50.723Z,0.57
2018-03-21T20:00:18.326Z,0.53
2018-03-21T20:02:45.917Z,0.47
2018-03-21T20:05:13.468Z,0.43
2018-03-21T20:07:41.173Z,0.43
2018-03-21T20:10:08.741Z,0.39
2018-03-21T20:12:36.303Z,0.42
2018-03-21T20:15:03.972Z,0.43
2018-03-21T20:17:31.549Z,0.44
2018-03-21T20:19:59.104Z,0.45
2018-03-21T20:22:26.800Z,0.49
2018-03-21T20:24:54.388Z,0.40
2018-03-21T20:27:21.974Z,0.41
2018-03-21T20:29:49.769Z,0.42
2018-03-21T20:32:17.356Z,0.43
2018-03-21T20:34:44.913Z,0.44
2018-03-21T20:37:12.574Z,0.43
2018-03-21T20:39:40.133Z,0.41
2018-03-21T20:42:07.722Z,0.42
2018-03-21T20:44:35.335Z,0.34
2018-03-21T20:47:02.920Z,0.31
2018-03-21T20:49:30.486Z,0.37
2018-03-21T20:51:58.220Z,0.34
2018-03-21T20:54:25.802Z,0.28
2018-03-21T20:56:53.352Z,0.28
2018-03-21T20:59:21.076Z,0.19
2018-03-21T21:01:48.648Z,0.12
2018-03-21T21:04:16.231Z,0.17
2018-03-21T21:06:43.893Z,0.16
2018-03-21T21:09:11.455Z,0.13
2018-03-21T21:11:39.025Z,0.13
2018-03-21T21:14:06.628Z,0.11
2018-03-21T21:16:34.208Z,0.08
2018-03-21T21:19:01.768Z,0.11
2018-03-21T21:21:29.502Z,0.11
2018-03-21T21:23:57.066Z,0.04
2018-03-21T21:26:24.605Z,0.04
2018-03-21T21:28:52.161Z,0.01
2018-03-21T21:31:19.744Z,0.00
2018-03-21T21:33:50.591Z,0.00
2018-03-21T21:36:18.150Z,-0.05
2018-03-21T21:38:45.728Z,-0.03
2018-03-21T21:41:13.328Z,-0.07
2018-03-21T21:43:40.894Z,-0.12
2018-03-21T21:46:08.482Z,-0.11
2018-03-21T21:48:36.193Z,-0.13
2018-03-21T21:51:03.767Z,-0.14
2018-03-21T21:53:31.348Z,-0.09
2018-03-21T21:55:58.960Z,-0.07
2018-03-21T21:58:26.523Z,-0.04
2018-03-21T22:00:54.089Z,-0.02
2018-03-21T22:03:21.691Z,-0.07
2018-03-21T22:05:49.249Z,-0.14
2018-03-21T22:08:16.825Z,-0.14
2018-03-21T22:10:44.414Z,-0.13
2018-03-21T22:13:11.972Z,-0.19
2018-03-21T22:15:39.525Z,-0.15
2018-03-21T22:18:07.111Z,-0.17
2018-03-21T22:20:34.675Z,-0.18
2018-03-21T22:23:02.229Z,-0.22
2018-03-21T22:25:35.875Z,-0.25
2018-03-21T22:28:03.447Z,-0.25
2018-03-21T22:30:31.014Z,-0.29
2018-03-21T22:35:51.440Z,-0.32
2018-03-21T22:38:18.996Z,-0.42
2018-03-21T22:40:48.405Z,-0.42
2018-03-21T22:43:16.004Z,-0.40
2018-03-21T22:45:43.554Z,-0.39
2018-03-21T22:48:11.103Z,-0.34
2018-03-21T22:50:38.979Z,-0.39
2018-03-21T22:53:06.549Z,-0.37
2018-03-21T22:55:34.123Z,-0.38
2018-03-21T22:58:01.706Z,-0.37
2018-03-21T23:00:29.270Z,-0.33
2018-03-21T23:02:56.841Z,-0.34
2018-03-21T23:05:24.432Z,-0.31
2018-03-21T23:07:52.013Z,-0.33
2018-03-21T23:10:19.569Z,-0.40
2018-03-21T23:12:47.154Z,-0.53
2018-03-21T23:15:14.707Z,-0.57
2018-03-21T23:17:42.263Z,-0.55
2018-03-21T23:20:09.854Z,-0.55
2018-03-21T23:22:37.404Z,-0.57
2018-03-21T23:25:04.949Z,-0.58
2018-03-21T23:27:32.550Z,-0.59
2018-03-21T23:30:00.093Z,-0.57
2018-03-21T23:32:27.696Z,-0.59
2018-03-21T23:34:55.250Z,-0.63
2018-03-21T23:37:22.814Z,-0.65
2018-03-21T23:39:50.554Z,-0.72
2018-03-21T23:42:18.109Z,-0.73
2018-03-21T23:44:45.670Z,-0.77
2018-03-21T23:50:06.084Z,-0.74
2018-03-21T23:52:33.641Z,-0.76
2018-03-21T23:55:01.190Z,-0.82
2018-03-21T23:57:28.876Z,-0.83
2018-03-21T23:59:56.422Z,-0.87
